createdAt,value
2018-09-17T00:00:18.356Z,11.60
2018-09-17T00:02:46.985Z,11.60
2018-09-17T00:05:15.722Z,11.50
2018-09-17T00:07:44.369Z,11.50
2018-09-17T00:10:12.985Z,11.50
2018-09-17T00:12:41.614Z,11.40
2018-09-17T00:15:10.226Z,11.40
2018-09-17T00:17:38.892Z,11.40
2018-09-17T00:20:07.540Z,11.30
2018-09-17T00:22:36.177Z,11.30
2018-09-17T00:25:04.910Z,11.30
2018-09-17T00:27:33.574Z,11.30
2018-09-17T00:30:02.242Z,11.30
2018-09-17T00:32:30.869Z,11.20
2018-09-17T00:34:59.499Z,11.20
2018-09-17T00:37:28.159Z,11.20
2018-09-17T00:39:56.771Z,11.20
2018-09-17T00:42:25.462Z,11.20
2018-09-17T00:44:54.057Z,11.10
2018-09-17T00:47:22.715Z,11.10
2018-09-17T00:49:51.373Z,11.10
2018-09-17T00:52:20.002Z,11.10
2018-09-17T00:54:48.735Z,11.10
2018-09-17T00:57:17.340Z,11.10
2018-09-17T00:59:45.971Z,11.10
2018-09-17T01:02:14.624Z,11.10
2018-09-17T01:04:43.259Z,11.10
2018-09-17T01:07:12.015Z,11.10
2018-09-17T01:09:41.619Z,11.10
2018-09-17T01:12:11.090Z,11.00
2018-09-17T01:14:39.817Z,11.00
2018-09-17T01:17:08.592Z,11.00
2018-09-17T01:19:37.370Z,11.00
2018-09-17T01:22:06.003Z,10.90
2018-09-17T01:24:34.631Z,10.90
2018-09-17T01:27:03.345Z,10.90
2018-09-17T01:29:31.967Z,10.80
2018-09-17T01:32:00.653Z,10.80
2018-09-17T01:34:29.362Z,10.80
2018-09-17T01:36:58.030Z,10.80
2018-09-17T01:39:26.697Z,10.80
2018-09-17T01:41:55.333Z,10.80
2018-09-17T01:44:24.003Z,10.80
2018-09-17T01:46:52.621Z,10.80
2018-09-17T01:49:21.228Z,10.70
2018-09-17T01:51:49.854Z,10.70
2018-09-17T01:54:18.488Z,10.60
2018-09-17T01:56:47.241Z,10.60
2018-09-17T01:59:15.912Z,10.60
2018-09-17T02:01:44.541Z,10.60
2018-09-17T02:04:13.185Z,10.60
2018-09-17T02:06:41.817Z,10.60
2018-09-17T02:09:10.576Z,10.60
2018-09-17T02:11:39.175Z,10.60
2018-09-17T02:14:07.811Z,10.50
2018-09-17T02:16:36.637Z,10.50
2018-09-17T02:19:05.333Z,10.50
2018-09-17T02:21:34.041Z,10.60
2018-09-17T02:24:02.726Z,10.60
2018-09-17T02:26:31.363Z,10.60
2018-09-17T02:29:00.001Z,10.60
2018-09-17T02:31:28.672Z,10.60
2018-09-17T02:33:57.339Z,10.70
2018-09-17T02:36:25.956Z,10.70
2018-09-17T02:38:54.558Z,10.60
2018-09-17T02:41:23.202Z,10.70
2018-09-17T02:43:51.842Z,10.70
2018-09-17T02:46:20.601Z,10.70
2018-09-17T02:48:49.297Z,10.70
2018-09-17T02:51:17.945Z,10.70
2018-09-17T02:53:46.587Z,10.70
2018-09-17T02:56:15.271Z,10.70
2018-09-17T02:58:43.969Z,10.70
2018-09-17T03:01:12.591Z,10.70
2018-09-17T03:03:41.183Z,10.70
2018-09-17T03:06:09.824Z,10.70
2018-09-17T03:08:38.447Z,10.70
2018-09-17T03:11:07.239Z,10.70
2018-09-17T03:13:35.873Z,10.70
2018-09-17T03:16:04.502Z,10.70
2018-09-17T03:18:46.066Z,10.70
2018-09-17T03:21:14.677Z,10.70
2018-09-17T03:23:43.414Z,10.70
2018-09-17T03:26:12.079Z,10.70
2018-09-17T03:28:40.766Z,10.70
2018-09-17T03:31:09.459Z,10.70
2018-09-17T03:33:38.089Z,10.70
2018-09-17T03:36:06.834Z,10.60
2018-09-17T03:38:47.557Z,10.60
2018-09-17T03:41:17.234Z,10.50
2018-09-17T03:43:48.239Z,10.50
2018-09-17T03:46:16.902Z,10.40
2018-09-17T03:48:45.594Z,10.40
2018-09-17T03:51:14.741Z,10.40
2018-09-17T03:53:43.574Z,10.40
2018-09-17T03:56:12.248Z,10.40
2018-09-17T03:58:40.865Z,10.40
2018-09-17T04:01:09.557Z,10.40
2018-09-17T04:03:38.163Z,10.30
2018-09-17T04:06:06.789Z,10.40
2018-09-17T04:08:35.431Z,10.30
2018-09-17T04:11:04.050Z,10.30
2018-09-17T04:13:32.709Z,10.20
2018-09-17T04:16:01.321Z,10.20
2018-09-17T04:18:29.958Z,10.20
2018-09-17T04:20:58.629Z,10.10
2018-09-17T04:23:35.189Z,10.10
2018-09-17T04:26:05.733Z,10.10
2018-09-17T04:28:34.935Z,10.20
2018-09-17T04:31:03.660Z,10.10
2018-09-17T04:33:34.481Z,10.10
2018-09-17T04:36:03.144Z,10.10
2018-09-17T04:38:31.769Z,10.00
2018-09-17T04:41:00.424Z,10.00
2018-09-17T04:43:29.054Z,10.00
2018-09-17T04:45:57.733Z,9.90
2018-09-17T04:48:26.748Z,10.00
2018-09-17T04:50:55.349Z,10.00
2018-09-17T04:53:24.061Z,10.00
2018-09-17T04:55:52.713Z,10.00
2018-09-17T04:58:21.367Z,10.00
2018-09-17T05:00:50.348Z,10.00
2018-09-17T05:03:18.949Z,10.00
2018-09-17T05:05:47.573Z,10.00
2018-09-17T05:08:16.274Z,10.00
2018-09-17T05:10:44.882Z,9.90
2018-09-17T05:13:13.571Z,9.90
2018-09-17T05:15:42.198Z,9.90
2018-09-17T05:18:10.817Z,9.90
2018-09-17T05:20:39.531Z,10.00
2018-09-17T05:23:08.117Z,10.00
2018-09-17T05:25:36.782Z,10.10
2018-09-17T05:28:05.521Z,10.10
2018-09-17T05:30:34.205Z,10.20
2018-09-17T05:33:03.158Z,10.20
2018-09-17T05:35:31.770Z,10.20
2018-09-17T05:38:00.599Z,10.20
2018-09-17T05:40:29.213Z,10.40
2018-09-17T05:42:57.838Z,10.40
2018-09-17T05:45:26.490Z,10.50
2018-09-17T05:47:55.125Z,10.60
2018-09-17T05:50:23.764Z,10.70
2018-09-17T05:52:52.424Z,10.80
2018-09-17T05:55:21.043Z,10.90
2018-09-17T05:57:49.681Z,11.00
2018-09-17T06:00:18.329Z,11.00
2018-09-17T06:02:46.989Z,11.10
2018-09-17T06:05:15.605Z,11.20
2018-09-17T06:07:44.285Z,11.30
2018-09-17T06:10:17.018Z,11.40
2018-09-17T06:12:47.978Z,11.50
2018-09-17T06:15:17.098Z,11.70
2018-09-17T06:17:45.758Z,11.80
2018-09-17T06:20:14.402Z,11.90
2018-09-17T06:22:43.038Z,12.00
2018-09-17T06:25:11.660Z,12.10
2018-09-17T06:27:40.341Z,12.10
2018-09-17T06:30:09.001Z,12.20
2018-09-17T06:32:37.686Z,12.30
2018-09-17T06:35:06.343Z,12.50
2018-09-17T06:37:35.051Z,12.70
2018-09-17T06:40:03.710Z,12.80
2018-09-17T06:42:32.324Z,12.90
2018-09-17T06:45:01.136Z,13.10
2018-09-17T06:47:29.817Z,13.20
2018-09-17T06:49:58.459Z,13.40
2018-09-17T06:52:27.074Z,13.50
2018-09-17T06:54:55.714Z,13.60
2018-09-17T06:57:24.361Z,13.70
2018-09-17T06:59:53.025Z,13.90
2018-09-17T07:02:21.656Z,14.00
2018-09-17T07:04:50.289Z,14.10
2018-09-17T07:07:18.941Z,14.30
2018-09-17T07:09:47.590Z,14.50
2018-09-17T07:12:16.380Z,14.60
2018-09-17T07:14:45.002Z,14.80
2018-09-17T07:17:13.628Z,15.00
2018-09-17T07:19:42.281Z,15.10
2018-09-17T07:22:10.902Z,15.30
2018-09-17T07:24:39.690Z,15.40
2018-09-17T07:27:08.333Z,15.50
2018-09-17T07:29:36.981Z,15.70
2018-09-17T07:32:05.895Z,15.90
2018-09-17T07:34:34.548Z,16.00
2018-09-17T07:37:03.252Z,16.10
2018-09-17T07:39:31.910Z,16.20
2018-09-17T07:42:00.628Z,16.30
2018-09-17T07:44:29.284Z,16.50
2018-09-17T07:46:57.972Z,16.60
2018-09-17T07:49:26.630Z,16.80
2018-09-17T07:51:55.315Z,16.90
2018-09-17T07:54:24.335Z,17.10
2018-09-17T07:56:52.958Z,17.20
2018-09-17T07:59:21.679Z,17.40
2018-09-17T08:01:50.291Z,17.50
2018-09-17T08:04:18.953Z,17.70
2018-09-17T08:06:47.564Z,17.70
2018-09-17T08:09:16.217Z,17.90
2018-09-17T08:11:45.018Z,18.10
2018-09-17T08:14:15.072Z,18.20
2018-09-17T08:16:43.937Z,18.30
2018-09-17T08:19:12.552Z,18.50
2018-09-17T08:21:41.257Z,18.60
2018-09-17T08:24:09.882Z,18.70
2018-09-17T08:26:38.550Z,18.80
2018-09-17T08:29:07.437Z,18.90
2018-09-17T08:31:36.101Z,19.10
2018-09-17T08:34:04.734Z,19.30
2018-09-17T08:36:33.495Z,19.40
2018-09-17T08:39:02.383Z,19.40
2018-09-17T08:41:31.003Z,19.60
2018-09-17T08:43:59.657Z,19.80
2018-09-17T08:46:28.280Z,19.90
2018-09-17T08:48:56.935Z,20.00
2018-09-17T08:51:25.546Z,20.10
2018-09-17T08:53:54.170Z,20.10
2018-09-17T08:56:27.013Z,20.10
2018-09-17T08:58:59.140Z,20.30
2018-09-17T09:01:34.130Z,20.40
2018-09-17T09:04:08.225Z,20.50
2018-09-17T09:06:42.016Z,20.60
2018-09-17T09:09:11.841Z,20.70
2018-09-17T09:11:45.913Z,20.90
2018-09-17T09:14:19.754Z,20.90
2018-09-17T09:16:48.401Z,20.90
2018-09-17T09:19:17.018Z,21.10
2018-09-17T09:21:45.669Z,21.20
2018-09-17T09:24:14.397Z,21.20
2018-09-17T09:26:43.101Z,21.30
2018-09-17T09:29:11.807Z,21.50
2018-09-17T09:31:40.495Z,21.60
2018-09-17T09:34:09.165Z,21.70
2018-09-17T09:36:37.798Z,21.80
2018-09-17T09:39:08.649Z,21.90
2018-09-17T09:41:37.290Z,22.00
2018-09-17T09:44:05.960Z,22.10
2018-09-17T09:46:34.613Z,22.10
2018-09-17T09:49:03.241Z,22.00
2018-09-17T09:51:31.944Z,22.10
2018-09-17T09:54:00.558Z,22.20
2018-09-17T09:56:29.202Z,22.30
2018-09-17T09:58:57.841Z,22.30
2018-09-17T10:01:27.426Z,22.40
2018-09-17T10:04:01.408Z,22.50
2018-09-17T10:06:30.020Z,22.60
2018-09-17T10:09:04.009Z,22.60
2018-09-17T10:11:37.910Z,22.70
2018-09-17T10:14:11.662Z,22.80
2018-09-17T10:16:44.490Z,22.90
2018-09-17T10:19:18.393Z,23.10
2018-09-17T10:21:47.060Z,23.00
2018-09-17T10:24:15.856Z,22.90
2018-09-17T10:26:44.513Z,23.00
2018-09-17T10:29:13.152Z,23.20
2018-09-17T10:31:42.020Z,23.40
2018-09-17T10:34:10.625Z,23.50
2018-09-17T10:36:39.282Z,23.70
2018-09-17T10:39:10.277Z,23.80
2018-09-17T10:41:38.929Z,23.90
2018-09-17T10:44:07.594Z,24.00
2018-09-17T10:46:37.254Z,24.20
2018-09-17T10:49:06.154Z,24.30
2018-09-17T10:51:34.832Z,24.20
2018-09-17T10:54:03.497Z,24.30
2018-09-17T10:56:32.100Z,24.30
2018-09-17T10:59:00.736Z,24.40
2018-09-17T11:01:29.347Z,24.50
2018-09-17T11:03:57.959Z,24.70
2018-09-17T11:06:26.616Z,24.90
2018-09-17T11:08:55.285Z,24.90
2018-09-17T11:11:24.111Z,25.00
2018-09-17T11:13:52.989Z,25.10
2018-09-17T11:16:21.633Z,25.30
2018-09-17T11:18:50.265Z,25.40
2018-09-17T11:21:18.909Z,25.30
2018-09-17T11:23:47.605Z,25.50
2018-09-17T11:26:16.214Z,25.50
2018-09-17T11:28:44.854Z,25.50
2018-09-17T11:31:13.504Z,25.50
2018-09-17T11:33:42.109Z,25.40
2018-09-17T11:36:10.890Z,25.50
2018-09-17T11:38:39.505Z,25.80
2018-09-17T11:41:08.250Z,26.30
2018-09-17T11:43:36.897Z,26.80
2018-09-17T11:46:05.613Z,27.10
2018-09-17T11:48:34.339Z,27.30
2018-09-17T11:51:03.403Z,27.60
2018-09-17T11:53:32.568Z,27.70
2018-09-17T11:56:01.241Z,27.90
2018-09-17T11:58:29.877Z,28.10
2018-09-17T12:01:03.905Z,28.30
2018-09-17T12:03:37.734Z,28.60
2018-09-17T12:06:06.425Z,28.80
2018-09-17T12:08:35.081Z,28.80
2018-09-17T12:11:06.590Z,28.60
2018-09-17T12:13:35.247Z,28.50
2018-09-17T12:16:03.974Z,28.30
2018-09-17T12:18:32.788Z,28.00
2018-09-17T12:21:01.452Z,27.80
2018-09-17T12:23:30.094Z,27.90
2018-09-17T12:25:58.707Z,27.80
2018-09-17T12:28:27.369Z,27.60
2018-09-17T12:30:56.035Z,27.70
2018-09-17T12:33:24.661Z,28.20
2018-09-17T12:35:53.364Z,28.60
2018-09-17T12:38:28.653Z,28.80
2018-09-17T12:40:57.310Z,29.10
2018-09-17T12:43:25.969Z,29.20
2018-09-17T12:45:54.628Z,29.40
2018-09-17T12:48:23.229Z,29.10
2018-09-17T12:50:51.878Z,29.50
2018-09-17T12:53:20.574Z,29.40
2018-09-17T12:55:49.254Z,29.30
2018-09-17T12:58:17.854Z,29.20
2018-09-17T13:00:46.640Z,29.40
2018-09-17T13:03:15.289Z,29.60
2018-09-17T13:05:43.904Z,29.80
2018-09-17T13:08:12.554Z,30.10
2018-09-17T13:10:41.226Z,29.90
2018-09-17T13:13:09.998Z,30.40
2018-09-17T13:15:43.989Z,30.50
2018-09-17T13:18:12.638Z,30.50
2018-09-17T13:20:41.372Z,30.30
2018-09-17T13:23:09.991Z,30.80
2018-09-17T13:25:38.632Z,31.10
2018-09-17T13:28:07.244Z,31.30
2018-09-17T13:30:36.174Z,31.90
2018-09-17T13:33:04.875Z,31.60
2018-09-17T13:35:33.558Z,31.70
2018-09-17T13:38:02.200Z,31.80
2018-09-17T13:40:30.832Z,31.50
2018-09-17T13:42:59.593Z,31.70
2018-09-17T13:45:28.228Z,32.00
2018-09-17T13:47:56.863Z,32.10
2018-09-17T13:50:25.481Z,32.60
2018-09-17T13:52:54.099Z,33.20
2018-09-17T13:55:22.790Z,33.00
2018-09-17T13:57:51.415Z,33.10
2018-09-17T14:00:20.119Z,32.90
2018-09-17T14:02:48.727Z,32.90
2018-09-17T14:05:17.405Z,33.30
2018-09-17T14:07:46.042Z,33.70
2018-09-17T14:10:14.721Z,33.50
2018-09-17T14:12:43.322Z,33.30
2018-09-17T14:15:12.138Z,33.30
2018-09-17T14:17:40.767Z,33.10
2018-09-17T14:20:09.429Z,33.20
2018-09-17T14:22:38.100Z,33.10
2018-09-17T14:25:07.193Z,33.30
2018-09-17T14:27:36.029Z,33.30
2018-09-17T14:30:04.813Z,33.30
2018-09-17T14:32:38.855Z,33.50
2018-09-17T14:35:07.591Z,33.50
2018-09-17T14:37:36.225Z,33.30
2018-09-17T14:40:04.985Z,33.40
2018-09-17T14:42:33.623Z,33.40
2018-09-17T14:45:02.261Z,33.50
2018-09-17T14:47:30.929Z,33.50
2018-09-17T14:49:59.577Z,33.70
2018-09-17T14:52:28.259Z,33.70
2018-09-17T14:54:56.900Z,33.60
2018-09-17T14:57:25.530Z,33.80
2018-09-17T14:59:54.193Z,33.90
2018-09-17T15:02:22.851Z,34.00
2018-09-17T15:04:51.562Z,34.10
2018-09-17T15:07:20.197Z,34.40
2018-09-17T15:09:48.875Z,34.90
2018-09-17T15:12:17.561Z,35.20
2018-09-17T15:14:46.292Z,35.20
2018-09-17T15:17:15.033Z,35.00
2018-09-17T15:19:43.685Z,34.50
2018-09-17T15:22:12.436Z,34.10
2018-09-17T15:24:41.054Z,34.50
2018-09-17T15:27:09.697Z,34.70
2018-09-17T15:29:38.471Z,34.50
2018-09-17T15:32:07.208Z,34.80
2018-09-17T15:34:35.808Z,34.80
2018-09-17T15:37:04.460Z,34.60
2018-09-17T15:39:33.065Z,34.70
2018-09-17T15:42:01.725Z,34.70
2018-09-17T15:44:36.904Z,34.50
2018-09-17T15:47:05.603Z,34.50
2018-09-17T15:49:34.233Z,34.00
2018-09-17T15:52:02.918Z,33.60
2018-09-17T15:54:31.572Z,33.80
2018-09-17T15:57:00.248Z,34.10
2018-09-17T15:59:28.867Z,34.10
2018-09-17T16:01:57.545Z,34.20
2018-09-17T16:04:26.195Z,33.90
2018-09-17T16:06:54.887Z,33.70
2018-09-17T16:09:23.536Z,33.70
2018-09-17T16:11:52.358Z,33.90
2018-09-17T16:14:21.674Z,33.70
2018-09-17T16:16:50.344Z,34.00
2018-09-17T16:19:19.045Z,33.90
2018-09-17T16:21:47.678Z,33.90
2018-09-17T16:24:16.311Z,34.00
2018-09-17T16:26:45.008Z,34.00
2018-09-17T16:29:13.649Z,34.10
2018-09-17T16:31:42.489Z,34.00
2018-09-17T16:34:11.130Z,33.70
2018-09-17T16:36:39.737Z,33.50
2018-09-17T16:39:09.477Z,33.30
2018-09-17T16:41:38.364Z,33.10
2018-09-17T16:44:07.282Z,32.90
2018-09-17T16:46:36.260Z,32.70
2018-09-17T16:49:04.952Z,32.40
2018-09-17T16:51:33.621Z,32.00
2018-09-17T16:54:02.245Z,31.60
2018-09-17T16:56:30.996Z,30.70
2018-09-17T16:58:59.682Z,29.90
2018-09-17T17:01:28.313Z,29.20
2018-09-17T17:03:56.961Z,28.50
2018-09-17T17:06:25.924Z,28.00
2018-09-17T17:08:54.628Z,27.30
2018-09-17T17:11:23.359Z,26.80
2018-09-17T17:13:51.961Z,26.30
2018-09-17T17:16:20.733Z,25.90
2018-09-17T17:18:49.337Z,25.60
2018-09-17T17:21:17.926Z,25.40
2018-09-17T17:23:46.624Z,25.10
2018-09-17T17:26:15.277Z,24.90
2018-09-17T17:28:44.131Z,24.50
2018-09-17T17:31:12.870Z,24.20
2018-09-17T17:33:41.598Z,24.00
2018-09-17T17:36:10.549Z,23.70
2018-09-17T17:38:39.161Z,23.40
2018-09-17T17:41:08.282Z,23.20
2018-09-17T17:43:36.953Z,22.90
2018-09-17T17:46:05.993Z,22.70
2018-09-17T17:48:34.715Z,22.50
2018-09-17T17:51:03.397Z,22.40
2018-09-17T17:53:32.026Z,22.20
2018-09-17T17:56:00.720Z,22.00
2018-09-17T17:58:29.369Z,21.80
2018-09-17T18:00:58.148Z,21.60
2018-09-17T18:03:26.729Z,21.50
2018-09-17T18:05:55.390Z,21.30
2018-09-17T18:08:24.123Z,21.20
2018-09-17T18:10:52.862Z,21.00
2018-09-17T18:13:21.667Z,20.90
2018-09-17T18:15:50.382Z,20.80
2018-09-17T18:18:19.061Z,20.60
2018-09-17T18:20:47.740Z,20.50
2018-09-17T18:23:16.414Z,20.40
2018-09-17T18:25:45.082Z,20.30
2018-09-17T18:28:16.774Z,20.20
2018-09-17T18:30:45.514Z,20.00
2018-09-17T18:33:14.430Z,19.90
2018-09-17T18:35:43.049Z,19.70
2018-09-17T18:38:11.703Z,19.70
2018-09-17T18:40:40.325Z,19.60
2018-09-17T18:43:08.996Z,19.40
2018-09-17T18:45:37.690Z,19.30
2018-09-17T18:48:06.396Z,19.20
2018-09-17T18:50:35.023Z,19.20
2018-09-17T18:53:03.709Z,19.00
2018-09-17T18:55:32.362Z,19.00
2018-09-17T18:58:01.056Z,18.90
2018-09-17T19:00:29.789Z,18.80
2018-09-17T19:02:58.508Z,18.70
2018-09-17T19:05:27.122Z,18.70
2018-09-17T19:07:55.773Z,18.60
2018-09-17T19:10:24.453Z,18.50
2018-09-17T19:12:53.097Z,18.50
2018-09-17T19:15:27.198Z,18.40
2018-09-17T19:18:00.042Z,18.30
2018-09-17T19:20:28.929Z,18.30
2018-09-17T19:23:02.879Z,18.20
2018-09-17T19:25:31.526Z,18.10
2018-09-17T19:28:05.407Z,18.00
2018-09-17T19:30:34.055Z,18.00
2018-09-17T19:33:02.741Z,17.90
2018-09-17T19:35:31.381Z,17.80
2018-09-17T19:38:05.412Z,17.80
2018-09-17T19:40:34.277Z,17.70
2018-09-17T19:43:02.919Z,17.70
2018-09-17T19:45:37.010Z,17.60
2018-09-17T19:48:05.657Z,17.50
2018-09-17T19:50:39.797Z,17.50
2018-09-17T19:53:08.418Z,17.40
2018-09-17T19:55:37.058Z,17.30
2018-09-17T19:58:10.959Z,17.20
2018-09-17T20:00:39.799Z,17.20
2018-09-17T20:03:08.366Z,17.00
2018-09-17T20:05:42.413Z,17.00
2018-09-17T20:08:11.409Z,16.90
2018-09-17T20:10:40.094Z,16.90
2018-09-17T20:13:08.753Z,16.80
2018-09-17T20:15:37.414Z,16.80
2018-09-17T20:18:06.069Z,16.70
2018-09-17T20:20:34.815Z,16.70
2018-09-17T20:23:03.436Z,16.60
2018-09-17T20:25:32.088Z,16.60
2018-09-17T20:28:00.802Z,16.40
2018-09-17T20:30:32.249Z,16.40
2018-09-17T20:33:01.306Z,16.30
2018-09-17T20:35:29.999Z,16.20
2018-09-17T20:37:58.653Z,16.10
2018-09-17T20:40:27.341Z,16.10
2018-09-17T20:42:56.029Z,16.00
2018-09-17T20:45:24.710Z,15.90
2018-09-17T20:47:53.498Z,15.90
2018-09-17T20:50:22.145Z,15.90
2018-09-17T20:52:50.797Z,15.80
2018-09-17T20:55:19.542Z,15.80
2018-09-17T20:57:48.263Z,15.70
2018-09-17T21:00:16.902Z,15.60
2018-09-17T21:02:45.508Z,15.60
2018-09-17T21:05:14.175Z,15.50
2018-09-17T21:07:42.807Z,15.40
2018-09-17T21:10:11.793Z,15.40
2018-09-17T21:12:40.481Z,15.30
2018-09-17T21:15:09.138Z,15.30
2018-09-17T21:17:37.899Z,15.20
2018-09-17T21:20:07.485Z,15.10
2018-09-17T21:22:42.924Z,15.10
2018-09-17T21:25:11.630Z,15.00
2018-09-17T21:27:40.289Z,14.90
2018-09-17T21:30:08.970Z,14.90
2018-09-17T21:32:37.602Z,14.80
2018-09-17T21:35:06.301Z,14.70
2018-09-17T21:37:34.945Z,14.70
2018-09-17T21:40:03.673Z,14.70
2018-09-17T21:42:32.337Z,14.60
2018-09-17T21:45:00.958Z,14.60
2018-09-17T21:47:29.737Z,14.50
2018-09-17T21:49:58.341Z,14.50
2018-09-17T21:52:27.043Z,14.40
2018-09-17T21:54:55.666Z,14.40
2018-09-17T21:57:24.310Z,14.40
2018-09-17T21:59:53.052Z,14.30
2018-09-17T22:02:21.773Z,14.30
2018-09-17T22:04:50.506Z,14.30
2018-09-17T22:07:19.177Z,14.30
2018-09-17T22:09:47.822Z,14.20
2018-09-17T22:12:16.589Z,14.20
2018-09-17T22:14:45.548Z,14.10
2018-09-17T22:17:14.237Z,14.10
2018-09-17T22:19:42.960Z,14.10
2018-09-17T22:22:11.626Z,14.10
2018-09-17T22:24:40.466Z,14.00
2018-09-17T22:27:09.141Z,14.10
2018-09-17T22:29:37.806Z,14.00
2018-09-17T22:32:06.528Z,13.90
2018-09-17T22:34:35.186Z,13.90
2018-09-17T22:37:04.037Z,13.90
2018-09-17T22:39:32.714Z,13.80
2018-09-17T22:42:01.441Z,13.80
2018-09-17T22:44:30.061Z,13.80
2018-09-17T22:46:58.747Z,13.70
2018-09-17T22:49:27.459Z,13.70
2018-09-17T22:51:56.149Z,13.70
2018-09-17T22:54:24.798Z,13.60
2018-09-17T22:56:53.509Z,13.60
2018-09-17T22:59:22.176Z,13.60
2018-09-17T23:01:50.853Z,13.60
2018-09-17T23:04:19.523Z,13.60
2018-09-17T23:06:48.207Z,13.50
2018-09-17T23:09:17.072Z,13.50
2018-09-17T23:11:45.841Z,13.50
2018-09-17T23:14:14.633Z,13.40
2018-09-17T23:16:43.296Z,13.40
2018-09-17T23:19:11.960Z,13.30
2018-09-17T23:21:40.627Z,13.30
2018-09-17T23:24:09.328Z,13.30
2018-09-17T23:26:38.054Z,13.30
2018-09-17T23:29:06.725Z,13.20
2018-09-17T23:31:35.375Z,13.20
2018-09-17T23:34:04.063Z,13.20
2018-09-17T23:36:32.745Z,13.10
2018-09-17T23:39:01.396Z,13.10
2018-09-17T23:41:30.062Z,13.00
2018-09-17T23:43:58.722Z,13.00
2018-09-17T23:46:27.395Z,13.00
2018-09-17T23:48:56.082Z,13.00
2018-09-17T23:51:24.746Z,12.90
2018-09-17T23:53:53.422Z,12.90
2018-09-17T23:56:22.110Z,12.80
2018-09-17T23:58:50.808Z,12.80
